createdAt,value
2023-05-15T00:00:13.864Z,22.3
2023-05-15T00:02:09.569Z,22.2
2023-05-15T00:04:09.479Z,22.1
2023-05-15T00:06:09.537Z,22
2023-05-15T00:08:09.697Z,21.8
2023-05-15T00:10:10.730Z,21.8
2023-05-15T00:12:09.543Z,21.7
2023-05-15T00:14:09.463Z,21.6
2023-05-15T00:16:09.651Z,21.5
2023-05-15T00:18:09.715Z,21.4
2023-05-15T00:20:09.430Z,21.4
2023-05-15T00:22:12.578Z,21.2
2023-05-15T00:24:10.816Z,21.2
2023-05-15T00:26:09.834Z,21.1
2023-05-15T00:28:24.113Z,21
2023-05-15T00:30:11.333Z,21
2023-05-15T00:32:10.654Z,20.8
2023-05-15T00:34:11.162Z,20.8
2023-05-15T00:36:09.559Z,20.8
2023-05-15T00:38:09.566Z,20.7
2023-05-15T00:40:09.478Z,20.7
2023-05-15T00:42:13.779Z,20.6
2023-05-15T00:44:09.387Z,20.5
2023-05-15T00:46:09.536Z,20.4
2023-05-15T00:48:09.602Z,20.4
2023-05-15T00:50:09.418Z,20.4
2023-05-15T00:52:09.442Z,20.3
2023-05-15T00:54:09.385Z,20.2
2023-05-15T00:56:10.792Z,20.2
2023-05-15T00:58:09.414Z,20.1
2023-05-15T01:00:09.466Z,20.2
2023-05-15T01:02:09.462Z,20.1
2023-05-15T01:04:12.141Z,20
2023-05-15T01:06:09.678Z,20
2023-05-15T01:08:09.552Z,19.9
2023-05-15T01:10:09.347Z,19.9
2023-05-15T01:12:09.436Z,19.9
2023-05-15T01:14:09.377Z,19.8
2023-05-15T01:16:09.374Z,19.8
2023-05-15T01:18:09.464Z,19.7
2023-05-15T01:20:09.370Z,19.7
2023-05-15T01:22:09.359Z,19.7
2023-05-15T01:24:12.156Z,19.6
2023-05-15T01:26:09.379Z,19.6
2023-05-15T01:28:09.364Z,19.5
2023-05-15T01:30:10.619Z,19.5
2023-05-15T01:32:09.474Z,19.4
2023-05-15T01:34:09.392Z,19.4
2023-05-15T01:36:09.364Z,19.3
2023-05-15T01:38:09.498Z,19.2
2023-05-15T01:40:09.330Z,19.2
2023-05-15T01:42:09.359Z,19.2
2023-05-15T01:44:09.525Z,19.1
2023-05-15T01:46:09.494Z,19
2023-05-15T01:48:09.361Z,18.9
2023-05-15T01:50:09.321Z,19
2023-05-15T01:52:09.305Z,18.9
2023-05-15T01:54:09.765Z,18.9
2023-05-15T01:56:09.474Z,18.8
2023-05-15T01:58:09.281Z,18.7
2023-05-15T02:00:11.033Z,18.7
2023-05-15T02:02:10.649Z,18.7
2023-05-15T02:04:09.366Z,18.7
2023-05-15T02:06:09.329Z,18.6
2023-05-15T02:08:09.375Z,18.6
2023-05-15T02:10:12.020Z,18.6
2023-05-15T02:12:09.448Z,18.6
2023-05-15T02:14:09.321Z,18.5
2023-05-15T02:16:10.424Z,18.5
2023-05-15T02:18:09.374Z,18.5
2023-05-15T02:20:09.286Z,18.5
2023-05-15T02:22:09.265Z,18.4
2023-05-15T02:24:09.279Z,18.4
2023-05-15T02:26:09.272Z,18.3
2023-05-15T02:28:09.298Z,18.2
2023-05-15T02:30:09.317Z,18.2
2023-05-15T02:32:09.434Z,18.2
2023-05-15T02:34:09.412Z,18.2
2023-05-15T02:36:09.310Z,18.1
2023-05-15T02:38:09.306Z,18.1
2023-05-15T02:40:09.489Z,18.2
2023-05-15T02:42:09.338Z,18.2
2023-05-15T02:44:10.542Z,18.2
2023-05-15T02:46:09.440Z,18.1
2023-05-15T02:48:09.322Z,18
2023-05-15T02:50:09.292Z,18.1
2023-05-15T02:52:09.260Z,18
2023-05-15T02:54:09.476Z,18
2023-05-15T02:56:09.264Z,17.9
2023-05-15T02:58:09.238Z,17.9
2023-05-15T03:00:09.278Z,18
2023-05-15T03:02:09.493Z,18
2023-05-15T03:04:09.331Z,17.9
2023-05-15T03:06:13.728Z,17.9
2023-05-15T03:08:09.316Z,17.8
2023-05-15T03:10:09.332Z,17.9
2023-05-15T03:12:09.267Z,17.8
2023-05-15T03:14:09.254Z,17.8
2023-05-15T03:16:11.976Z,17.8
2023-05-15T03:18:10.619Z,17.7
2023-05-15T03:20:09.420Z,17.7
2023-05-15T03:22:09.421Z,17.7
2023-05-15T03:24:10.577Z,17.6
2023-05-15T03:26:09.285Z,17.6
2023-05-15T03:28:09.347Z,17.6
2023-05-15T03:30:09.327Z,17.6
2023-05-15T03:32:09.227Z,17.5
2023-05-15T03:34:09.272Z,17.5
2023-05-15T03:36:09.237Z,17.4
2023-05-15T03:38:10.250Z,17.4
2023-05-15T03:40:09.309Z,17.5
2023-05-15T03:42:09.212Z,17.4
2023-05-15T03:44:09.245Z,17.4
2023-05-15T03:46:09.324Z,17.3
2023-05-15T03:48:09.318Z,17.3
2023-05-15T03:50:09.250Z,17.4
2023-05-15T03:52:09.181Z,17.3
2023-05-15T03:54:09.503Z,17.3
2023-05-15T03:56:09.191Z,17.3
2023-05-15T03:58:09.197Z,17.3
2023-05-15T04:00:12.612Z,17.3
2023-05-15T04:02:09.211Z,17.3
2023-05-15T04:04:09.337Z,17.2
2023-05-15T04:06:09.181Z,17.2
2023-05-15T04:08:09.333Z,17.1
2023-05-15T04:10:13.533Z,17.2
2023-05-15T04:12:09.180Z,17.1
2023-05-15T04:14:11.116Z,17.1
2023-05-15T04:16:09.231Z,17
2023-05-15T04:18:09.250Z,17
2023-05-15T04:20:09.415Z,17.1
2023-05-15T04:22:09.140Z,17
2023-05-15T04:24:09.257Z,17
2023-05-15T04:26:09.280Z,17
2023-05-15T04:28:10.453Z,16.9
2023-05-15T04:30:09.165Z,16.9
2023-05-15T04:32:09.295Z,16.9
2023-05-15T04:34:10.430Z,16.8
2023-05-15T04:36:09.176Z,16.8
2023-05-15T04:38:09.136Z,16.8
2023-05-15T04:40:09.295Z,16.9
2023-05-15T04:42:09.169Z,16.9
2023-05-15T04:44:09.128Z,16.8
2023-05-15T04:46:09.312Z,16.7
2023-05-15T04:48:09.153Z,16.7
2023-05-15T04:50:09.168Z,16.8
2023-05-15T04:52:09.179Z,16.7
2023-05-15T04:54:09.118Z,16.7
2023-05-15T04:56:09.218Z,16.7
2023-05-15T04:58:09.234Z,16.7
2023-05-15T05:00:09.136Z,16.8
2023-05-15T05:02:09.123Z,16.7
2023-05-15T05:04:09.155Z,16.7
2023-05-15T05:06:09.142Z,16.6
2023-05-15T05:08:09.123Z,16.6
2023-05-15T05:10:09.132Z,16.7
2023-05-15T05:12:09.160Z,16.6
2023-05-15T05:14:09.236Z,16.6
2023-05-15T05:16:09.093Z,16.6
2023-05-15T05:18:09.122Z,16.6
2023-05-15T05:20:11.227Z,16.6
2023-05-15T05:22:09.149Z,16.6
2023-05-15T05:24:09.078Z,16.6
2023-05-15T05:26:09.064Z,16.6
2023-05-15T05:28:09.124Z,16.5
2023-05-15T05:30:09.049Z,16.5
2023-05-15T05:32:09.080Z,16.5
2023-05-15T05:34:09.168Z,16.5
2023-05-15T05:36:09.086Z,16.5
2023-05-15T05:38:09.158Z,16.4
2023-05-15T05:40:09.095Z,16.5
2023-05-15T05:42:09.034Z,16.4
2023-05-15T05:44:09.048Z,16.4
2023-05-15T05:46:12.056Z,16.4
2023-05-15T05:48:09.307Z,16.4
2023-05-15T05:50:09.104Z,16.4
2023-05-15T05:52:09.060Z,16.4
2023-05-15T05:54:09.086Z,16.3
2023-05-15T05:56:09.101Z,16.3
2023-05-15T05:58:15.063Z,16.3
2023-05-15T06:00:09.136Z,16.4
2023-05-15T06:02:09.273Z,16.3
2023-05-15T06:04:09.083Z,16.3
2023-05-15T06:06:09.126Z,16.3
2023-05-15T06:08:09.015Z,16.2
2023-05-15T06:10:09.006Z,16.3
2023-05-15T06:12:09.023Z,16.3
2023-05-15T06:14:09.167Z,16.2
2023-05-15T06:16:09.011Z,16.2
2023-05-15T06:18:09.035Z,16.2
2023-05-15T06:20:09.057Z,16.3
2023-05-15T06:22:08.988Z,16.2
2023-05-15T06:24:09.015Z,16.1
2023-05-15T06:26:09.024Z,16.1
2023-05-15T06:28:09.002Z,16.1
2023-05-15T06:30:09.008Z,16.1
2023-05-15T06:32:08.996Z,16.1
2023-05-15T06:34:08.997Z,16
2023-05-15T06:36:08.981Z,16
2023-05-15T06:38:09.017Z,16
2023-05-15T06:40:08.978Z,16
2023-05-15T06:42:08.977Z,16
2023-05-15T06:44:09.006Z,16
2023-05-15T06:46:09.107Z,16
2023-05-15T06:48:09.029Z,16
2023-05-15T06:50:08.985Z,16.1
2023-05-15T06:52:08.993Z,16
2023-05-15T06:54:08.968Z,16
2023-05-15T06:56:08.960Z,16
2023-05-15T06:58:08.997Z,15.9
2023-05-15T07:00:08.977Z,16
2023-05-15T07:02:09.079Z,16
2023-05-15T07:04:09.008Z,15.9
2023-05-15T07:06:08.951Z,15.9
2023-05-15T07:08:09.033Z,15.8
2023-05-15T07:10:08.969Z,15.9
2023-05-15T07:12:09.152Z,15.9
2023-05-15T07:14:08.957Z,15.8
2023-05-15T07:16:09.011Z,15.8
2023-05-15T07:18:09.237Z,15.8
2023-05-15T07:20:08.954Z,15.9
2023-05-15T07:22:09.010Z,15.8
2023-05-15T07:24:09.078Z,15.8
2023-05-15T07:26:14.016Z,15.8
2023-05-15T07:28:08.944Z,15.8
2023-05-15T07:30:08.936Z,15.8
2023-05-15T07:32:08.900Z,15.8
2023-05-15T07:34:08.964Z,15.8
2023-05-15T07:36:08.939Z,15.7
2023-05-15T07:38:08.952Z,15.7
2023-05-15T07:40:08.976Z,15.8
2023-05-15T07:42:08.901Z,15.7
2023-05-15T07:44:10.245Z,15.7
2023-05-15T07:46:09.039Z,15.7
2023-05-15T07:48:09.106Z,15.7
2023-05-15T07:50:08.978Z,15.8
2023-05-15T07:52:08.915Z,15.7
2023-05-15T07:54:09.044Z,15.7
2023-05-15T07:56:09.016Z,15.6
2023-05-15T07:58:10.185Z,15.6
2023-05-15T08:00:09.088Z,15.7
2023-05-15T08:02:08.978Z,15.6
2023-05-15T08:04:08.898Z,15.6
2023-05-15T08:06:08.881Z,15.5
2023-05-15T08:08:08.907Z,15.5
2023-05-15T08:10:08.943Z,15.6
2023-05-15T08:12:08.845Z,15.5
2023-05-15T08:14:09.586Z,15.5
2023-05-15T08:16:09.087Z,15.5
2023-05-15T08:18:09.078Z,15.5
2023-05-15T08:20:08.889Z,15.6
2023-05-15T08:22:09.045Z,15.6
2023-05-15T08:24:08.864Z,15.5
2023-05-15T08:26:08.870Z,15.5
2023-05-15T08:28:08.866Z,15.5
2023-05-15T08:30:11.324Z,15.6
2023-05-15T08:32:08.867Z,15.5
2023-05-15T08:34:08.858Z,15.5
2023-05-15T08:36:08.952Z,15.5
2023-05-15T08:38:08.832Z,15.5
2023-05-15T08:40:08.883Z,15.5
2023-05-15T08:42:08.943Z,15.5
2023-05-15T08:44:08.833Z,15.5
2023-05-15T08:46:08.827Z,15.4
2023-05-15T08:48:08.817Z,15.4
2023-05-15T08:50:08.858Z,15.5
2023-05-15T08:52:08.981Z,15.4
2023-05-15T08:54:08.914Z,15.4
2023-05-15T08:56:08.889Z,15.4
2023-05-15T08:58:08.816Z,15.4
2023-05-15T09:00:08.994Z,15.5
2023-05-15T09:02:08.880Z,15.4
2023-05-15T09:04:08.986Z,15.4
2023-05-15T09:06:08.827Z,15.4
2023-05-15T09:08:08.791Z,15.4
2023-05-15T09:10:08.805Z,15.4
2023-05-15T09:12:08.880Z,15.3
2023-05-15T09:14:08.790Z,15.3
2023-05-15T09:16:08.837Z,15.4
2023-05-15T09:18:08.841Z,15.4
2023-05-15T09:20:08.839Z,15.5
2023-05-15T09:22:08.825Z,15.4
2023-05-15T09:24:08.801Z,15.4
2023-05-15T09:26:08.795Z,15.4
2023-05-15T09:28:08.779Z,15.4
2023-05-15T09:30:08.799Z,15.4
2023-05-15T09:32:08.918Z,15.4
2023-05-15T09:34:08.789Z,15.4
2023-05-15T09:36:08.813Z,15.3
2023-05-15T09:38:08.773Z,15.3
2023-05-15T09:40:08.763Z,15.4
2023-05-15T09:42:09.014Z,15.4
2023-05-15T09:44:10.119Z,15.3
2023-05-15T09:46:08.885Z,15.3
2023-05-15T09:48:08.899Z,15.3
2023-05-15T09:50:08.950Z,15.4
2023-05-15T09:52:09.983Z,15.3
2023-05-15T09:54:08.791Z,15.3
2023-05-15T09:56:08.981Z,15.3
2023-05-15T09:58:11.472Z,15.2
2023-05-15T10:00:09.149Z,15.3
2023-05-15T10:02:08.896Z,15.3
2023-05-15T10:04:10.116Z,15.3
2023-05-15T10:06:08.975Z,15.2
2023-05-15T10:08:08.796Z,15.2
2023-05-15T10:10:08.787Z,15.3
2023-05-15T10:12:10.181Z,15.3
2023-05-15T10:14:10.045Z,15.3
2023-05-15T10:16:08.908Z,15.2
2023-05-15T10:18:08.890Z,15.3
2023-05-15T10:20:08.750Z,15.4
2023-05-15T10:22:08.974Z,15.3
2023-05-15T10:24:08.833Z,15.3
2023-05-15T10:26:08.785Z,15.4
2023-05-15T10:28:08.933Z,15.4
2023-05-15T10:30:08.769Z,15.5
2023-05-15T10:32:09.319Z,15.4
2023-05-15T10:34:08.765Z,15.4
2023-05-15T10:36:08.786Z,15.5
2023-05-15T10:38:08.766Z,15.4
2023-05-15T10:40:08.729Z,15.5
2023-05-15T10:42:08.756Z,15.5
2023-05-15T10:44:10.263Z,15.5
2023-05-15T10:46:09.918Z,15.5
2023-05-15T10:48:11.262Z,15.5
2023-05-15T10:50:19.106Z,15.7
2023-05-15T10:52:10.107Z,15.6
2023-05-15T10:54:08.908Z,15.7
2023-05-15T10:56:08.832Z,15.7
2023-05-15T10:58:08.749Z,15.7
2023-05-15T11:00:08.693Z,15.8
2023-05-15T11:02:08.779Z,15.8
2023-05-15T11:04:09.354Z,15.8
2023-05-15T11:06:08.698Z,15.9
2023-05-15T11:08:08.820Z,16
2023-05-15T11:10:08.976Z,16.2
2023-05-15T11:12:08.746Z,16.3
2023-05-15T11:14:08.771Z,16.5
2023-05-15T11:16:08.649Z,16.6
2023-05-15T11:18:08.794Z,16.7
2023-05-15T11:20:08.692Z,16.9
2023-05-15T11:22:10.267Z,17
2023-05-15T11:24:08.698Z,17.1
2023-05-15T11:26:08.713Z,17.2
2023-05-15T11:28:08.755Z,17.3
2023-05-15T11:30:08.661Z,17.6
2023-05-15T11:32:08.730Z,17.6
2023-05-15T11:34:09.726Z,17.8
2023-05-15T11:36:08.714Z,17.9
2023-05-15T11:38:08.683Z,17.9
2023-05-15T11:40:08.875Z,18.1
2023-05-15T11:42:08.735Z,18.2
2023-05-15T11:44:08.735Z,18.3
2023-05-15T11:46:08.790Z,18.4
2023-05-15T11:48:08.695Z,18.5
2023-05-15T11:50:11.241Z,18.6
2023-05-15T11:52:09.921Z,18.6
2023-05-15T11:54:08.727Z,18.7
2023-05-15T11:56:08.757Z,18.7
2023-05-15T11:58:09.998Z,18.8
2023-05-15T12:00:16.810Z,19.1
2023-05-15T12:02:08.674Z,19.3
2023-05-15T12:04:08.755Z,19.4
2023-05-15T12:06:20.463Z,19.6
2023-05-15T12:08:08.628Z,19.7
2023-05-15T12:10:08.901Z,20
2023-05-15T12:12:08.719Z,20.1
2023-05-15T12:14:08.618Z,20.2
2023-05-15T12:16:08.624Z,20.3
2023-05-15T12:18:08.723Z,20.5
2023-05-15T12:20:10.007Z,20.7
2023-05-15T12:22:08.602Z,20.9
2023-05-15T12:24:08.902Z,20.9
2023-05-15T12:26:10.425Z,21.1
2023-05-15T12:28:08.835Z,21.2
2023-05-15T12:30:08.668Z,21.4
2023-05-15T12:32:19.193Z,21.5
2023-05-15T12:34:10.146Z,21.5
2023-05-15T12:36:08.688Z,21.6
2023-05-15T12:38:10.026Z,21.6
2023-05-15T12:40:08.743Z,21.7
2023-05-15T12:42:09.988Z,21.8
2023-05-15T12:44:08.789Z,21.8
2023-05-15T12:46:13.028Z,21.9
2023-05-15T12:48:09.948Z,22
2023-05-15T12:50:08.646Z,22.2
2023-05-15T12:52:08.584Z,22.2
2023-05-15T12:54:08.792Z,22.2
2023-05-15T12:56:09.847Z,22.3
2023-05-15T12:58:08.708Z,22.3
2023-05-15T13:00:19.157Z,22.6
2023-05-15T13:02:11.224Z,22.7
2023-05-15T13:04:08.653Z,22.8
2023-05-15T13:06:08.631Z,22.9
2023-05-15T13:08:08.714Z,23
2023-05-15T13:10:09.913Z,23.1
2023-05-15T13:12:08.586Z,23.1
2023-05-15T13:14:09.731Z,23.3
2023-05-15T13:16:18.879Z,23.3
2023-05-15T13:18:12.747Z,23.4
2023-05-15T13:20:08.678Z,23.5
2023-05-15T13:22:08.533Z,23.8
2023-05-15T13:24:08.578Z,23.9
2023-05-15T13:26:08.709Z,24
2023-05-15T13:28:08.874Z,24.2
2023-05-15T13:30:09.951Z,24.3
2023-05-15T13:32:08.567Z,24.3
2023-05-15T13:34:09.659Z,24.4
2023-05-15T13:36:08.793Z,24.5
2023-05-15T13:38:11.270Z,24.6
2023-05-15T13:40:08.624Z,24.7
2023-05-15T13:42:10.289Z,24.9
2023-05-15T13:44:08.710Z,25
2023-05-15T13:46:08.539Z,25.1
2023-05-15T13:48:08.710Z,25.3
2023-05-15T13:50:08.567Z,25.3
2023-05-15T13:52:08.506Z,25.6
2023-05-15T13:54:08.532Z,25.8
2023-05-15T13:56:08.585Z,26
2023-05-15T13:58:08.712Z,26.1
2023-05-15T14:00:08.718Z,26.2
2023-05-15T14:02:09.636Z,26.3
2023-05-15T14:04:08.634Z,26.4
2023-05-15T14:06:08.569Z,26.4
2023-05-15T14:08:08.613Z,26.5
2023-05-15T14:10:08.585Z,26.5
2023-05-15T14:12:08.656Z,26.9
2023-05-15T14:14:14.209Z,27
2023-05-15T14:16:08.576Z,27
2023-05-15T14:18:08.792Z,27.2
2023-05-15T14:20:08.503Z,27.4
2023-05-15T14:22:09.984Z,27.4
2023-05-15T14:24:08.502Z,27.3
2023-05-15T14:26:08.514Z,27.3
2023-05-15T14:28:08.519Z,27.3
2023-05-15T14:30:08.461Z,27.4
2023-05-15T14:32:22.693Z,27.6
2023-05-15T14:34:08.509Z,27.3
2023-05-15T14:36:09.589Z,27.4
2023-05-15T14:38:08.660Z,27.4
2023-05-15T14:40:09.631Z,27.6
2023-05-15T14:42:08.551Z,28.1
2023-05-15T14:44:08.498Z,28.2
2023-05-15T14:46:11.221Z,28.3
2023-05-15T14:48:08.564Z,28.3
2023-05-15T14:50:08.538Z,28.4
2023-05-15T14:52:08.532Z,28.6
2023-05-15T14:54:08.464Z,28.7
2023-05-15T14:56:08.539Z,28.8
2023-05-15T14:58:08.629Z,29.1
2023-05-15T15:00:11.677Z,29.1
2023-05-15T15:02:08.943Z,29.3
2023-05-15T15:04:08.624Z,29.1
2023-05-15T15:06:09.704Z,29.2
2023-05-15T15:08:08.526Z,29.3
2023-05-15T15:10:08.482Z,29.2
2023-05-15T15:12:08.537Z,29.4
2023-05-15T15:14:08.600Z,29.4
2023-05-15T15:16:08.504Z,29.3
2023-05-15T15:18:08.473Z,29.2
2023-05-15T15:20:08.445Z,29.1
2023-05-15T15:22:08.420Z,29.3
2023-05-15T15:24:08.575Z,29.2
2023-05-15T15:26:08.392Z,29.2
2023-05-15T15:28:08.545Z,29.2
2023-05-15T15:30:08.522Z,29.1
2023-05-15T15:32:08.481Z,29.2
2023-05-15T15:34:08.606Z,29.1
2023-05-15T15:36:08.482Z,29
2023-05-15T15:38:08.628Z,29
2023-05-15T15:40:09.816Z,29
2023-05-15T15:42:08.499Z,29.1
2023-05-15T15:44:08.385Z,29
2023-05-15T15:46:08.495Z,28.9
2023-05-15T15:48:08.603Z,29
2023-05-15T15:50:08.547Z,29
2023-05-15T15:52:08.424Z,29.3
2023-05-15T15:54:12.827Z,29.5
2023-05-15T15:56:08.437Z,29.5
2023-05-15T15:58:08.457Z,29.6
2023-05-15T16:00:08.672Z,29.6
2023-05-15T16:02:08.601Z,29.8
2023-05-15T16:04:08.407Z,29.7
2023-05-15T16:06:08.624Z,29.9
2023-05-15T16:08:08.298Z,30.1
2023-05-15T16:10:12.752Z,30.3
2023-05-15T16:12:08.466Z,30.6
2023-05-15T16:14:08.367Z,30.8
2023-05-15T16:16:09.643Z,30.8
2023-05-15T16:18:09.766Z,30.8
2023-05-15T16:20:08.460Z,30.9
2023-05-15T16:22:08.561Z,30.9
2023-05-15T16:24:08.564Z,30.9
2023-05-15T16:26:08.479Z,30.6
2023-05-15T16:28:09.968Z,30.1
2023-05-15T16:30:08.440Z,30
2023-05-15T16:32:09.622Z,30
2023-05-15T16:34:08.493Z,30
2023-05-15T16:36:09.418Z,29.8
2023-05-15T16:38:08.437Z,29.8
2023-05-15T16:40:08.472Z,29.5
2023-05-15T16:42:09.501Z,29.7
2023-05-15T16:44:08.341Z,29.4
2023-05-15T16:47:04.204Z,29.1
2023-05-15T16:47:04.207Z,27.5
2023-05-15T16:49:32.178Z,27.5
2023-05-15T16:52:08.331Z,28.9
2023-05-15T16:54:08.254Z,28.7
2023-05-15T16:56:08.325Z,28.6
2023-05-15T16:58:08.315Z,28.6
2023-05-15T17:00:08.342Z,28.6
2023-05-15T17:02:08.437Z,28.7
2023-05-15T17:04:08.301Z,28.6
2023-05-15T17:06:08.465Z,28.5
2023-05-15T17:08:08.480Z,28.5
2023-05-15T17:10:10.476Z,28.6
2023-05-15T17:12:08.455Z,28.7
2023-05-15T17:14:09.532Z,28.4
2023-05-15T17:16:08.420Z,28.4
2023-05-15T17:18:08.593Z,28.3
2023-05-15T17:20:08.340Z,28.4
2023-05-15T17:22:09.705Z,28.6
2023-05-15T17:24:08.459Z,28.3
2023-05-15T17:26:09.911Z,28.4
2023-05-15T17:26:45.181Z,28.4
2023-05-15T17:28:08.317Z,28.5
2023-05-15T17:30:15.667Z,28.5
2023-05-15T17:32:08.422Z,28.5
2023-05-15T17:34:08.325Z,28.4
2023-05-15T17:36:08.358Z,28.3
2023-05-15T17:38:08.349Z,28.4
2023-05-15T17:40:09.534Z,28.2
2023-05-15T17:42:08.550Z,28.1
2023-05-15T17:44:08.474Z,28.1
2023-05-15T17:46:09.619Z,28.2
2023-05-15T17:48:08.283Z,28.2
2023-05-15T17:50:08.403Z,28.3
2023-05-15T17:52:08.467Z,28.4
2023-05-15T17:54:09.273Z,28.3
2023-05-15T17:56:14.722Z,28.2
2023-05-15T17:58:08.298Z,28.3
2023-05-15T18:00:12.735Z,28.5
2023-05-15T18:02:08.513Z,28.7
2023-05-15T18:04:08.486Z,28.7
2023-05-15T18:06:08.269Z,28.7
2023-05-15T18:08:08.320Z,28.7
2023-05-15T18:10:08.484Z,28.8
2023-05-15T18:11:22.157Z,28.8
2023-05-15T18:14:09.440Z,28.8
2023-05-15T18:16:08.564Z,28.9
2023-05-15T18:18:08.386Z,28.9
2023-05-15T18:20:08.281Z,29.1
2023-05-15T18:22:08.302Z,29.3
2023-05-15T18:24:09.626Z,29.3
2023-05-15T18:26:08.318Z,29.3
2023-05-15T18:28:08.243Z,29.5
2023-05-15T18:30:09.265Z,29.5
2023-05-15T18:32:08.256Z,29.8
2023-05-15T18:34:08.258Z,29.8
2023-05-15T18:36:08.421Z,29.7
2023-05-15T18:38:08.434Z,29.9
2023-05-15T18:40:08.286Z,29.8
2023-05-15T18:42:08.424Z,30.1
2023-05-15T18:44:08.458Z,30.1
2023-05-15T18:46:08.402Z,30.2
2023-05-15T18:48:08.439Z,30.1
2023-05-15T18:50:08.223Z,29.8
2023-05-15T18:52:08.209Z,30.1
2023-05-15T18:54:08.212Z,29.9
2023-05-15T18:56:09.634Z,30
2023-05-15T18:58:08.232Z,30
2023-05-15T19:00:09.430Z,30.2
2023-05-15T19:02:08.280Z,30.4
2023-05-15T19:04:08.256Z,30.4
2023-05-15T19:06:08.390Z,30.4
2023-05-15T19:08:08.269Z,30.5
2023-05-15T19:10:08.212Z,30.6
2023-05-15T19:12:09.642Z,30.7
2023-05-15T19:14:08.377Z,30.8
2023-05-15T19:16:08.188Z,31
2023-05-15T19:18:09.798Z,31.1
2023-05-15T19:20:08.392Z,31.2
2023-05-15T19:22:08.260Z,31.5
2023-05-15T19:24:08.429Z,31.3
2023-05-15T19:26:08.228Z,31.5
2023-05-15T19:28:08.253Z,31.3
2023-05-15T19:30:11.249Z,31.3
2023-05-15T19:32:09.572Z,31.8
2023-05-15T19:34:08.403Z,31.4
2023-05-15T19:36:09.672Z,31.6
2023-05-15T19:38:08.379Z,31.5
2023-05-15T19:40:08.258Z,31.7
2023-05-15T19:42:08.361Z,31.9
2023-05-15T19:44:08.246Z,31.9
2023-05-15T19:46:08.247Z,32
2023-05-15T19:48:09.776Z,32
2023-05-15T19:50:12.774Z,31.8
2023-05-15T19:52:08.355Z,32
2023-05-15T19:54:08.157Z,32.1
2023-05-15T19:56:08.400Z,32.3
2023-05-15T19:58:08.302Z,32.4
2023-05-15T20:00:10.364Z,32.4
2023-05-15T20:02:08.339Z,32.5
2023-05-15T20:04:08.319Z,32.3
2023-05-15T20:06:09.533Z,32.2
2023-05-15T20:08:08.378Z,32.2
2023-05-15T20:10:08.264Z,32.3
2023-05-15T20:12:08.235Z,32.3
2023-05-15T20:14:08.217Z,31.8
2023-05-15T20:16:08.429Z,31.8
2023-05-15T20:18:08.411Z,31.8
2023-05-15T20:20:08.198Z,31.8
2023-05-15T20:22:12.449Z,31.9
2023-05-15T20:24:08.140Z,31.5
2023-05-15T20:26:35.384Z,31.5
2023-05-15T20:28:08.237Z,31.2
2023-05-15T20:30:10.017Z,31.4
2023-05-15T20:32:08.114Z,31.6
2023-05-15T20:34:08.298Z,31.4
2023-05-15T20:36:10.589Z,31.3
2023-05-15T20:38:09.533Z,31.2
2023-05-15T20:40:09.240Z,31.1
2023-05-15T20:42:13.169Z,31.3
2023-05-15T20:54:24.372Z,30.7
2023-05-15T20:55:38.288Z,30.6
2023-05-15T20:57:38.439Z,30.6
2023-05-15T20:59:39.606Z,30.5
2023-05-15T21:01:42.774Z,30.4
2023-05-15T21:03:38.428Z,30.5
2023-05-15T21:05:42.909Z,30.3
2023-05-15T21:07:40.394Z,30.2
2023-05-15T21:09:39.690Z,30.1
2023-05-15T21:11:39.814Z,30.1
2023-05-15T21:13:38.461Z,30.1
2023-05-15T21:15:39.870Z,29.9
2023-05-15T21:17:39.598Z,29.8
2023-05-15T21:19:46.176Z,29.7
2023-05-15T21:21:38.375Z,29.6
2023-05-15T21:23:39.810Z,29.6
2023-05-15T21:25:48.821Z,29.5
2023-05-15T21:27:38.467Z,29.2
2023-05-15T21:29:38.331Z,29.1
2023-05-15T21:31:38.669Z,29
2023-05-15T21:33:39.437Z,29.2
2023-05-15T21:35:38.342Z,29.1
2023-05-15T21:37:38.420Z,29.1
2023-05-15T21:39:38.366Z,29.1
2023-05-15T21:41:39.496Z,29
2023-05-15T21:43:38.465Z,29.1
2023-05-15T21:45:39.778Z,29
2023-05-15T21:47:38.291Z,29
2023-05-15T21:49:38.318Z,29.1
2023-05-15T21:51:39.401Z,29.1
2023-05-15T21:53:39.782Z,29.2
2023-05-15T21:55:38.299Z,29.2
2023-05-15T21:57:39.613Z,29.2
2023-05-15T21:59:38.395Z,29.2
2023-05-15T22:01:38.423Z,29.3
2023-05-15T22:03:38.411Z,29.3
2023-05-15T22:05:39.402Z,29.1
2023-05-15T22:07:38.450Z,28.8
2023-05-15T22:09:38.316Z,28.6
2023-05-15T22:11:38.245Z,28.4
2023-05-15T22:13:38.531Z,28.3
2023-05-15T22:15:39.933Z,28.1
2023-05-15T22:17:39.582Z,28
2023-05-15T22:19:39.481Z,27.9
2023-05-15T22:21:39.554Z,27.6
2023-05-15T22:23:40.720Z,27.5
2023-05-15T22:25:47.065Z,27.3
2023-05-15T22:27:38.404Z,27.2
2023-05-15T22:29:38.341Z,27.2
2023-05-15T22:31:38.361Z,27.1
2023-05-15T22:33:38.306Z,27.1
2023-05-15T22:35:38.224Z,26.8
2023-05-15T22:37:38.300Z,26.7
2023-05-15T22:39:38.261Z,26.6
2023-05-15T22:41:38.585Z,26.5
2023-05-15T22:43:38.222Z,26.5
2023-05-15T22:45:39.469Z,26.3
2023-05-15T22:47:39.581Z,26.1
2023-05-15T22:49:38.224Z,26.1
2023-05-15T22:51:38.860Z,26.1
2023-05-15T22:53:38.315Z,26.1
2023-05-15T22:55:38.283Z,26
2023-05-15T22:57:38.289Z,25.9
2023-05-15T22:59:38.197Z,25.7
2023-05-15T23:01:39.837Z,25.7
2023-05-15T23:03:38.356Z,25.7
2023-05-15T23:05:42.241Z,25.6
2023-05-15T23:07:38.369Z,25.5
2023-05-15T23:09:38.353Z,25.4
2023-05-15T23:11:38.252Z,25.3
2023-05-15T23:13:39.210Z,25.3
2023-05-15T23:15:41.017Z,25.2
2023-05-15T23:17:38.494Z,25.1
2023-05-15T23:19:38.311Z,24.9
2023-05-15T23:21:40.721Z,24.8
2023-05-15T23:23:40.704Z,24.9
2023-05-15T23:25:38.348Z,24.8
2023-05-15T23:27:39.544Z,24.7
2023-05-15T23:29:38.232Z,24.6
